createdAt,value
2018-12-31T00:02:31.937Z,102208.97
2018-12-31T00:05:00.618Z,102208.14
2018-12-31T00:07:29.273Z,102209.83
2018-12-31T00:09:57.917Z,102210.22
2018-12-31T00:12:27.003Z,102203.81
2018-12-31T00:14:55.658Z,102209.23
2018-12-31T00:17:24.309Z,102207.36
2018-12-31T00:19:53.035Z,102204.46
2018-12-31T00:22:23.725Z,102209.41
2018-12-31T00:24:52.352Z,102219.00
2018-12-31T00:27:21.117Z,102216.69
2018-12-31T00:29:49.981Z,102213.78
2018-12-31T00:32:18.977Z,102212.96
2018-12-31T00:34:47.611Z,102206.80
2018-12-31T00:37:16.360Z,102207.52
2018-12-31T00:39:44.992Z,102210.06
2018-12-31T00:42:13.679Z,102201.93
2018-12-31T00:44:42.351Z,102197.58
2018-12-31T00:47:11.158Z,102203.98
2018-12-31T00:49:39.828Z,102202.99
2018-12-31T00:52:08.479Z,102201.22
2018-12-31T00:54:37.178Z,102204.25
2018-12-31T00:57:05.805Z,102204.00
2018-12-31T00:59:35.413Z,102201.40
2018-12-31T01:02:04.191Z,102205.25
2018-12-31T01:04:32.871Z,102198.45
2018-12-31T01:07:01.537Z,102199.44
2018-12-31T01:09:30.190Z,102201.05
2018-12-31T01:11:58.861Z,102205.76
2018-12-31T01:14:27.542Z,102200.81
2018-12-31T01:16:56.171Z,102199.06
2018-12-31T01:19:24.808Z,102197.44
2018-12-31T01:21:53.458Z,102194.52
2018-12-31T01:24:22.236Z,102201.77
2018-12-31T01:26:50.903Z,102207.59
2018-12-31T01:29:19.603Z,102193.18
2018-12-31T01:31:48.242Z,102198.29
2018-12-31T01:34:16.915Z,102195.02
2018-12-31T01:36:45.579Z,102195.23
2018-12-31T01:39:14.267Z,102194.91
2018-12-31T01:41:42.904Z,102209.03
2018-12-31T01:44:11.610Z,102207.20
2018-12-31T01:46:40.255Z,102204.48
2018-12-31T01:49:08.922Z,102206.16
2018-12-31T01:51:37.561Z,102212.09
2018-12-31T01:54:06.194Z,102204.83
2018-12-31T01:56:34.872Z,102206.58
2018-12-31T01:59:03.542Z,102211.48
2018-12-31T02:01:32.175Z,102210.87
2018-12-31T02:04:00.837Z,102211.75
2018-12-31T02:06:30.898Z,102210.02
2018-12-31T02:08:59.548Z,102208.08
2018-12-31T02:11:28.201Z,102201.80
2018-12-31T02:13:56.985Z,102207.36
2018-12-31T02:16:25.692Z,102213.13
2018-12-31T02:18:54.339Z,102210.36
2018-12-31T02:21:22.998Z,102209.54
2018-12-31T02:23:51.660Z,102206.64
2018-12-31T02:26:20.330Z,102202.15
2018-12-31T02:28:48.994Z,102199.37
2018-12-31T02:31:17.657Z,102199.78
2018-12-31T02:33:46.276Z,102186.70
2018-12-31T02:36:14.974Z,102209.41
2018-12-31T02:38:43.641Z,102217.65
2018-12-31T02:41:12.374Z,102209.17
2018-12-31T02:43:41.015Z,102205.66
2018-12-31T02:46:09.694Z,102206.50
2018-12-31T02:48:38.375Z,102210.63
2018-12-31T02:51:07.023Z,102211.75
2018-12-31T02:53:35.655Z,102214.77
2018-12-31T02:56:04.478Z,102216.91
2018-12-31T02:58:33.110Z,102209.78
2018-12-31T03:01:01.838Z,102208.34
2018-12-31T03:03:30.455Z,102209.91
2018-12-31T03:05:59.097Z,102207.94
2018-12-31T03:08:27.760Z,102209.86
2018-12-31T03:10:56.398Z,102204.94
2018-12-31T03:13:25.030Z,102205.41
2018-12-31T03:15:53.659Z,102199.86
2018-12-31T03:18:22.390Z,102190.66
2018-12-31T03:20:51.022Z,102185.84
2018-12-31T03:23:19.648Z,102175.69
2018-12-31T03:25:48.326Z,102172.28
2018-12-31T03:28:16.973Z,102168.43
2018-12-31T03:30:45.671Z,102161.61
2018-12-31T03:33:14.298Z,102165.25
2018-12-31T03:35:42.921Z,102160.79
2018-12-31T03:38:11.576Z,102161.84
2018-12-31T03:40:40.243Z,102166.31
2018-12-31T04:36:23.760Z,102161.78
2018-12-31T04:38:52.448Z,102167.23
2018-12-31T04:41:21.216Z,102164.20
2018-12-31T04:43:49.871Z,102163.72
2018-12-31T04:46:18.497Z,102167.58
2018-12-31T04:48:47.176Z,102173.27
2018-12-31T04:51:15.832Z,102174.70
2018-12-31T04:53:44.542Z,102168.97
2018-12-31T04:56:13.151Z,102166.14
2018-12-31T04:58:41.834Z,102169.04
2018-12-31T05:01:10.477Z,102163.11
2018-12-31T05:03:39.127Z,102169.76
2018-12-31T05:06:07.751Z,102168.70
2018-12-31T05:08:36.394Z,102166.99
2018-12-31T05:11:05.071Z,102170.13
2018-12-31T05:13:33.714Z,102163.34
2018-12-31T05:16:02.362Z,102175.55
2018-12-31T05:18:31.040Z,102171.36
2018-12-31T05:20:59.702Z,102174.22
2018-12-31T05:23:28.339Z,102169.31
2018-12-31T05:26:15.990Z,102179.06
2018-12-31T05:28:44.686Z,102182.09
2018-12-31T05:31:13.315Z,102179.67
2018-12-31T05:33:42.001Z,102181.11
2018-12-31T05:36:10.664Z,102183.91
2018-12-31T05:38:39.308Z,102176.16
2018-12-31T05:41:07.937Z,102179.88
2018-12-31T05:43:36.590Z,102184.52
2018-12-31T05:46:05.323Z,102186.33
2018-12-31T05:48:34.004Z,102186.33
2018-12-31T05:51:02.672Z,102189.80
2018-12-31T05:53:31.347Z,102198.05
2018-12-31T05:56:00.003Z,102206.55
2018-12-31T05:58:28.655Z,102203.41
2018-12-31T06:00:57.274Z,102205.45
2018-12-31T06:03:26.025Z,102208.87
2018-12-31T06:05:54.703Z,102210.26
2018-12-31T06:08:42.553Z,102217.86
2018-12-31T06:11:11.165Z,102215.47
2018-12-31T06:13:39.804Z,102214.75
2018-12-31T06:16:08.473Z,102213.66
2018-12-31T06:18:37.150Z,102210.36
2018-12-31T06:21:05.808Z,102212.80
2018-12-31T06:23:34.526Z,102211.34
2018-12-31T06:26:03.236Z,102210.52
2018-12-31T06:28:31.894Z,102209.19
2018-12-31T06:31:00.991Z,102217.67
2018-12-31T06:33:29.729Z,102225.04
2018-12-31T06:35:58.351Z,102220.81
2018-12-31T06:38:26.999Z,102224.42
2018-12-31T06:40:55.686Z,102225.25
2018-12-31T06:43:24.321Z,102220.39
2018-12-31T06:45:52.970Z,102229.45
2018-12-31T06:48:21.599Z,102228.73
2018-12-31T06:50:50.263Z,102227.41
2018-12-31T06:53:18.984Z,102228.27
2018-12-31T06:55:47.647Z,102221.61
2018-12-31T06:58:16.263Z,102228.88
2018-12-31T07:00:44.904Z,102229.16
2018-12-31T07:03:13.584Z,102238.23
2018-12-31T07:05:42.248Z,102250.03
2018-12-31T07:08:10.865Z,102252.69
2018-12-31T07:10:39.502Z,102251.12
2018-12-31T07:13:08.132Z,102258.48
2018-12-31T07:15:36.767Z,102263.79
2018-12-31T07:18:05.462Z,102272.14
2018-12-31T07:20:34.106Z,102271.90
2018-12-31T07:23:02.734Z,102276.25
2018-12-31T07:25:31.377Z,102275.41
2018-12-31T07:28:00.005Z,102276.75
2018-12-31T07:30:28.644Z,102277.45
2018-12-31T07:32:57.288Z,102274.51
2018-12-31T07:35:26.088Z,102274.41
2018-12-31T07:37:55.169Z,102267.38
2018-12-31T07:40:23.986Z,102280.44
2018-12-31T07:42:52.713Z,102285.22
2018-12-31T07:45:21.481Z,102273.84
2018-12-31T07:47:50.313Z,102282.66
2018-12-31T07:50:19.009Z,102302.02
2018-12-31T07:52:47.730Z,102288.11
2018-12-31T07:55:16.382Z,102292.59
2018-12-31T07:57:45.029Z,102298.75
2018-12-31T08:00:13.671Z,102296.34
2018-12-31T08:02:42.289Z,102303.47
2018-12-31T08:05:10.919Z,102297.92
2018-12-31T08:07:39.541Z,102305.18
2018-12-31T08:10:08.257Z,102297.20
2018-12-31T08:12:36.890Z,102296.45
2018-12-31T08:15:08.286Z,102300.91
2018-12-31T08:17:36.933Z,102298.39
2018-12-31T08:20:05.931Z,102295.86
2018-12-31T08:22:34.652Z,102294.52
2018-12-31T08:25:03.398Z,102293.16
2018-12-31T08:27:32.147Z,102303.19
2018-12-31T08:30:00.791Z,102302.48
2018-12-31T08:32:29.671Z,102304.89
2018-12-31T08:34:58.953Z,102297.99
2018-12-31T08:37:27.694Z,102307.05
2018-12-31T08:39:56.313Z,102309.55
2018-12-31T08:42:24.955Z,102307.31
2018-12-31T08:44:53.615Z,102305.85
2018-12-31T08:47:22.268Z,102296.38
2018-12-31T08:49:50.967Z,102307.84
2018-12-31T08:52:19.631Z,102314.90
2018-12-31T08:54:48.287Z,102308.65
2018-12-31T08:57:16.934Z,102307.20
2018-12-31T08:59:45.618Z,102312.50
2018-12-31T09:02:14.312Z,102312.00
2018-12-31T09:04:42.960Z,102302.30
2018-12-31T09:10:10.245Z,102305.55
2018-12-31T09:12:38.958Z,102315.45
2018-12-31T09:15:07.742Z,102310.76
2018-12-31T09:17:36.369Z,102317.52
2018-12-31T09:20:06.110Z,102308.47
2018-12-31T09:22:34.807Z,102319.76
2018-12-31T09:25:03.446Z,102317.04
2018-12-31T09:27:32.180Z,102320.77
2018-12-31T09:30:00.811Z,102312.05
2018-12-31T09:32:29.454Z,102312.56
2018-12-31T09:34:58.113Z,102312.28
2018-12-31T09:37:26.766Z,102310.28
2018-12-31T09:39:55.474Z,102315.70
2018-12-31T09:42:24.097Z,102310.48
2018-12-31T09:44:52.736Z,102311.09
2018-12-31T09:47:21.402Z,102308.30
2018-12-31T09:49:50.071Z,102315.05
2018-12-31T09:52:18.715Z,102313.28
2018-12-31T09:54:47.351Z,102310.34
2018-12-31T09:57:35.230Z,102309.58
2018-12-31T10:00:03.964Z,102315.95
2018-12-31T10:02:32.731Z,102312.56
2018-12-31T10:05:01.353Z,102311.75
2018-12-31T10:07:30.164Z,102309.06
2018-12-31T10:09:58.794Z,102303.51
2018-12-31T10:12:27.507Z,102306.12
2018-12-31T10:14:56.237Z,102311.64
2018-12-31T10:17:24.913Z,102305.91
2018-12-31T10:19:53.798Z,102304.66
2018-12-31T10:22:22.561Z,102307.98
2018-12-31T10:24:51.222Z,102308.50
2018-12-31T10:27:20.025Z,102305.63
2018-12-31T10:29:48.661Z,102305.86
2018-12-31T10:32:17.348Z,102299.51
2018-12-31T10:34:46.050Z,102296.27
2018-12-31T10:37:14.714Z,102292.61
2018-12-31T10:39:43.416Z,102287.50
2018-12-31T10:42:31.102Z,102287.30
2018-12-31T10:44:59.733Z,102290.59
2018-12-31T10:47:28.385Z,102292.72
2018-12-31T10:49:57.033Z,102292.86
2018-12-31T10:52:25.725Z,102290.56
2018-12-31T10:54:54.454Z,102288.86
2018-12-31T10:57:23.098Z,102284.05
2018-12-31T10:59:51.735Z,102276.53
2018-12-31T11:02:20.395Z,102277.79
2018-12-31T11:04:49.035Z,102270.02
2018-12-31T11:07:17.680Z,102263.91
2018-12-31T11:09:46.356Z,102263.87
2018-12-31T11:12:14.990Z,102260.77
2018-12-31T11:14:43.667Z,102256.91
2018-12-31T11:17:12.322Z,102261.17
2018-12-31T11:19:40.982Z,102256.69
2018-12-31T11:22:09.632Z,102260.50
2018-12-31T11:24:38.293Z,102262.25
2018-12-31T11:27:06.925Z,102270.11
2018-12-31T11:29:35.620Z,102269.77
2018-12-31T11:32:04.328Z,102265.43
2018-12-31T11:34:33.027Z,102273.92
2018-12-31T11:37:01.661Z,102264.66
2018-12-31T11:39:30.361Z,102259.02
2018-12-31T11:41:59.035Z,102261.39
2018-12-31T11:44:27.708Z,102252.20
2018-12-31T11:46:56.355Z,102244.75
2018-12-31T11:49:25.015Z,102236.34
2018-12-31T11:51:53.661Z,102228.19
2018-12-31T11:54:41.611Z,102227.92
2018-12-31T11:57:10.216Z,102223.98
2018-12-31T11:59:38.961Z,102228.41
2018-12-31T12:02:07.588Z,102221.69
2018-12-31T12:04:36.236Z,102221.75
2018-12-31T12:07:04.983Z,102220.34
2018-12-31T12:09:33.751Z,102217.25
2018-12-31T12:12:02.401Z,102216.17
2018-12-31T12:14:31.103Z,102218.02
2018-12-31T12:16:59.826Z,102208.95
2018-12-31T12:19:47.701Z,102209.49
2018-12-31T12:22:16.448Z,102207.80
2018-12-31T12:24:46.971Z,102209.64
2018-12-31T12:27:15.738Z,102201.77
2018-12-31T12:29:44.442Z,102205.95
2018-12-31T12:32:13.148Z,102204.28
2018-12-31T12:34:41.941Z,102203.73
2018-12-31T12:37:12.344Z,102198.55
2018-12-31T12:39:41.004Z,102196.84
2018-12-31T12:42:09.650Z,102200.28
2018-12-31T12:50:59.624Z,102201.62
2018-12-31T12:56:30.550Z,102199.06
2018-12-31T12:58:57.073Z,102199.70
2018-12-31T13:01:26.673Z,102202.07
2018-12-31T13:03:55.818Z,102197.89
2018-12-31T13:06:43.929Z,102201.38
2018-12-31T13:09:52.716Z,102205.98
2018-12-31T13:21:44.171Z,102206.99
2018-12-31T13:24:13.733Z,102203.00
2018-12-31T13:26:43.651Z,102208.70
2018-12-31T13:29:14.473Z,102203.94
2018-12-31T13:31:43.394Z,102210.58
2018-12-31T13:37:19.932Z,102213.72
2018-12-31T13:39:49.627Z,102215.22
2018-12-31T13:42:23.892Z,102212.30
2018-12-31T13:47:31.413Z,102222.34
2018-12-31T13:50:00.177Z,102219.61
2018-12-31T13:52:30.042Z,102215.27
2018-12-31T14:00:27.921Z,102208.81
2018-12-31T14:02:57.213Z,102208.64
2018-12-31T14:05:26.362Z,102207.86
2018-12-31T14:16:52.385Z,102213.03
2018-12-31T14:19:22.207Z,102213.25
2018-12-31T14:21:51.460Z,102217.95
2018-12-31T14:24:22.486Z,102212.72
2018-12-31T14:27:14.735Z,102218.12
2018-12-31T14:32:19.528Z,102215.55
2018-12-31T14:38:09.144Z,102227.78
2018-12-31T14:40:37.748Z,102226.23
2018-12-31T14:43:06.428Z,102233.83
2018-12-31T14:45:35.051Z,102235.37
2018-12-31T14:48:03.746Z,102233.52
2018-12-31T14:50:32.381Z,102234.31
2018-12-31T14:53:01.122Z,102240.23
2018-12-31T14:55:29.754Z,102239.53
2018-12-31T14:57:58.387Z,102241.38
2018-12-31T15:00:27.197Z,102238.50
2018-12-31T15:02:55.905Z,102239.28
2018-12-31T15:05:24.564Z,102229.78
2018-12-31T15:07:53.197Z,102231.62
2018-12-31T15:10:21.893Z,102231.00
2018-12-31T15:12:50.754Z,102243.39
2018-12-31T15:15:19.409Z,102240.33
2018-12-31T15:17:48.122Z,102243.85
2018-12-31T15:20:16.811Z,102245.09
2018-12-31T15:22:45.508Z,102244.05
2018-12-31T15:25:35.170Z,102245.72
2018-12-31T15:28:03.782Z,102248.37
2018-12-31T15:30:32.422Z,102253.23
2018-12-31T15:33:01.146Z,102251.41
2018-12-31T15:35:29.796Z,102261.67
2018-12-31T15:37:58.505Z,102255.58
2018-12-31T15:40:27.133Z,102254.38
2018-12-31T15:42:55.781Z,102262.75
2018-12-31T15:45:24.477Z,102264.23
2018-12-31T15:47:53.295Z,102264.88
2018-12-31T15:50:21.958Z,102267.17
2018-12-31T15:52:50.616Z,102272.10
2018-12-31T15:55:19.266Z,102265.55
2018-12-31T15:57:47.948Z,102268.99
2018-12-31T16:00:18.306Z,102267.06
2018-12-31T16:02:46.991Z,102269.66
2018-12-31T16:05:15.697Z,102265.72
2018-12-31T16:07:45.975Z,102268.47
2018-12-31T16:10:14.814Z,102271.95
2018-12-31T16:12:45.185Z,102271.25
2018-12-31T16:15:13.816Z,102268.29
2018-12-31T16:17:42.537Z,102268.09
2018-12-31T16:20:11.192Z,102261.91
2018-12-31T16:22:39.862Z,102263.95
2018-12-31T16:25:10.254Z,102261.42
2018-12-31T16:27:38.898Z,102264.98
2018-12-31T16:30:08.077Z,102267.25
2018-12-31T16:32:36.816Z,102262.73
2018-12-31T16:35:05.564Z,102262.09
2018-12-31T16:37:35.942Z,102265.55
2018-12-31T16:40:04.878Z,102267.32
2018-12-31T16:42:33.723Z,102268.51
2018-12-31T16:45:02.427Z,102264.43
2018-12-31T16:47:31.378Z,102268.70
2018-12-31T16:52:57.486Z,102272.18
2018-12-31T16:55:26.145Z,102263.17
2018-12-31T16:57:55.021Z,102260.02
2018-12-31T17:00:23.640Z,102254.65
2018-12-31T17:02:52.297Z,102259.17
2018-12-31T17:05:21.046Z,102262.46
2018-12-31T17:07:49.675Z,102257.77
2018-12-31T17:10:18.363Z,102256.16
2018-12-31T17:12:47.035Z,102255.45
2018-12-31T17:15:15.855Z,102259.94
2018-12-31T17:17:44.488Z,102266.06
2018-12-31T17:20:13.150Z,102270.81
2018-12-31T17:22:41.789Z,102267.80
2018-12-31T17:25:10.438Z,102271.99
2018-12-31T17:27:39.306Z,102265.13
2018-12-31T17:30:08.155Z,102268.62
2018-12-31T17:32:36.779Z,102266.17
2018-12-31T17:35:05.626Z,102266.58
2018-12-31T17:37:36.081Z,102269.39
2018-12-31T17:40:04.947Z,102273.69
2018-12-31T17:42:33.596Z,102274.27
2018-12-31T17:45:02.239Z,102276.76
2018-12-31T17:47:30.993Z,102273.06
2018-12-31T17:50:01.355Z,102278.25
2018-12-31T17:52:30.002Z,102276.61
2018-12-31T17:54:58.637Z,102289.25
2018-12-31T17:57:27.300Z,102283.55
2018-12-31T17:59:55.958Z,102285.56
2018-12-31T18:02:24.793Z,102290.44
2018-12-31T18:04:53.491Z,102290.02
2018-12-31T18:07:22.163Z,102292.38
2018-12-31T18:09:50.782Z,102288.78
2018-12-31T18:12:19.412Z,102300.36
2018-12-31T18:14:48.080Z,102297.07
2018-12-31T18:17:16.701Z,102295.84
2018-12-31T18:19:45.387Z,102295.73
2018-12-31T18:22:14.073Z,102291.05
2018-12-31T18:24:42.831Z,102293.16
2018-12-31T18:27:11.458Z,102288.59
2018-12-31T18:29:40.831Z,102287.36
2018-12-31T18:32:09.454Z,102291.97
2018-12-31T18:34:38.106Z,102292.45
2018-12-31T18:37:06.799Z,102295.36
2018-12-31T18:39:35.438Z,102296.59
2018-12-31T18:42:04.197Z,102294.94
2018-12-31T18:44:32.828Z,102296.05
2018-12-31T18:47:01.504Z,102300.22
2018-12-31T18:49:30.138Z,102304.92
2018-12-31T18:51:58.829Z,102297.16
2018-12-31T18:54:27.664Z,102301.63
2018-12-31T18:56:56.312Z,102305.78
2018-12-31T18:59:24.954Z,102311.64
2018-12-31T19:01:53.643Z,102310.94
2018-12-31T19:04:22.373Z,102306.45
2018-12-31T19:06:52.759Z,102307.81
2018-12-31T19:09:21.423Z,102309.05
2018-12-31T19:11:50.094Z,102315.70
2018-12-31T19:14:18.735Z,102315.33
2018-12-31T19:16:47.377Z,102311.09
2018-12-31T19:19:16.107Z,102308.04
2018-12-31T19:21:44.850Z,102311.52
2018-12-31T19:24:13.502Z,102307.53
2018-12-31T19:26:42.198Z,102303.53
2018-12-31T19:29:10.928Z,102299.92
2018-12-31T19:31:39.608Z,102303.33
2018-12-31T19:34:08.312Z,102302.23
2018-12-31T19:37:22.175Z,102305.86
2018-12-31T19:50:17.155Z,102285.07
2018-12-31T19:53:32.394Z,102291.11
2018-12-31T20:11:51.867Z,102278.06
2018-12-31T20:14:42.639Z,102274.85
2018-12-31T20:23:27.721Z,102277.58
2018-12-31T20:28:52.876Z,102279.47
2018-12-31T20:32:27.359Z,102278.19
2018-12-31T20:35:56.238Z,102278.91
2018-12-31T20:42:13.032Z,102277.61
2018-12-31T20:45:55.410Z,102278.55
2018-12-31T20:51:35.199Z,102280.53
2018-12-31T21:06:59.622Z,102265.81
2018-12-31T21:10:09.661Z,102259.28
2018-12-31T21:12:44.460Z,102261.74
2018-12-31T21:22:06.508Z,102259.17
2018-12-31T21:28:13.872Z,102253.95
2018-12-31T21:34:03.675Z,102262.12
2018-12-31T21:42:29.640Z,102265.90
2018-12-31T21:45:05.541Z,102265.88
2018-12-31T21:50:30.087Z,102275.70
2018-12-31T21:52:59.897Z,102278.65
2018-12-31T21:59:20.047Z,102267.62
2018-12-31T22:05:15.645Z,102271.38
2018-12-31T22:07:45.311Z,102273.84
2018-12-31T22:10:40.865Z,102263.91
2018-12-31T22:13:10.148Z,102262.48
2018-12-31T22:15:39.541Z,102266.05
2018-12-31T22:32:16.873Z,102252.16
2018-12-31T22:34:45.998Z,102247.31
2018-12-31T22:55:43.000Z,102253.31
2018-12-31T23:07:13.964Z,102255.22
2018-12-31T23:13:01.004Z,102260.83
2018-12-31T23:24:26.258Z,102222.98
2018-12-31T23:26:42.909Z,102233.63
2018-12-31T23:29:12.139Z,102228.86
2018-12-31T23:35:17.261Z,102224.98
2018-12-31T23:37:59.370Z,102223.64
2018-12-31T23:40:28.388Z,102215.70
2018-12-31T23:42:57.887Z,102222.22
2018-12-31T23:45:28.356Z,102229.06
2018-12-31T23:47:57.625Z,102226.59
2018-12-31T23:50:27.684Z,102237.98
2018-12-31T23:55:47.317Z,102224.17
